sensor_id;sensor_type;location;lat;lon;timestamp;pressure;altitude;pressure_sealevel;temperature;humidity
48424;BME280;34232;42.502;26.014;2023-05-03T00:00:30;100700.44;;;11.81;55.71
48424;BME280;34232;42.502;26.014;2023-05-03T00:02:56;100699.97;;;11.87;56.07
48424;BME280;34232;42.502;26.014;2023-05-03T00:05:21;100701.19;;;11.95;55.79
48424;BME280;34232;42.502;26.014;2023-05-03T00:07:46;100703.22;;;11.91;56.31
48424;BME280;34232;42.502;26.014;2023-05-03T00:10:12;100702.75;;;11.97;56.05
48424;BME280;34232;42.502;26.014;2023-05-03T00:12:38;100707.91;;;11.99;56.23
48424;BME280;34232;42.502;26.014;2023-05-03T00:15:03;100703.47;;;11.99;56.79
48424;BME280;34232;42.502;26.014;2023-05-03T00:17:29;100696.84;;;12.05;56.95
48424;BME280;34232;42.502;26.014;2023-05-03T00:19:54;100701.91;;;12.08;56.60
48424;BME280;34232;42.502;26.014;2023-05-03T00:22:20;100699.97;;;12.10;57.08
48424;BME280;34232;42.502;26.014;2023-05-03T00:24:46;100694.94;;;12.07;57.08
48424;BME280;34232;42.502;26.014;2023-05-03T00:27:13;100699.38;;;12.06;57.56
48424;BME280;34232;42.502;26.014;2023-05-03T00:29:38;100699.97;;;12.10;57.88
48424;BME280;34232;42.502;26.014;2023-05-03T00:32:03;100701.44;;;12.14;58.54
48424;BME280;34232;42.502;26.014;2023-05-03T00:34:29;100695.91;;;12.17;58.18
48424;BME280;34232;42.502;26.014;2023-05-03T00:36:54;100695.91;;;12.17;58.71
48424;BME280;34232;42.502;26.014;2023-05-03T00:39:19;100700.72;;;12.01;59.39
48424;BME280;34232;42.502;26.014;2023-05-03T00:41:44;100700.22;;;12.07;59.69
48424;BME280;34232;42.502;26.014;2023-05-03T00:44:10;100698.53;;;12.06;59.64
48424;BME280;34232;42.502;26.014;2023-05-03T00:46:35;100696.84;;;12.05;59.88
48424;BME280;34232;42.502;26.014;2023-05-03T00:49:00;100690.16;;;12.01;60.20
48424;BME280;34232;42.502;26.014;2023-05-03T00:51:26;100686.41;;;11.92;60.46
48424;BME280;34232;42.502;26.014;2023-05-03T00:53:52;100684.13;;;11.87;60.79
48424;BME280;34232;42.502;26.014;2023-05-03T00:56:18;100682.09;;;11.80;61.55
48424;BME280;34232;42.502;26.014;2023-05-03T00:58:45;100674.41;;;11.77;61.37
48424;BME280;34232;42.502;26.014;2023-05-03T01:01:10;100674.50;;;11.75;61.72
48424;BME280;34232;42.502;26.014;2023-05-03T01:03:36;100672.75;;;11.76;62.21
48424;BME280;34232;42.502;26.014;2023-05-03T01:08:41;100671.56;;;11.80;62.24
48424;BME280;34232;42.502;26.014;2023-05-03T01:11:13;100670.47;;;11.82;62.72
48424;BME280;34232;42.502;26.014;2023-05-03T01:16:35;100670.09;;;11.87;61.95
48424;BME280;34232;42.502;26.014;2023-05-03T01:19:04;100666.88;;;11.83;61.84
48424;BME280;34232;42.502;26.014;2023-05-03T01:21:31;100674.06;;;11.81;61.84
48424;BME280;34232;42.502;26.014;2023-05-03T01:24:09;100672.63;;;11.77;62.65
48424;BME280;34232;42.502;26.014;2023-05-03T01:26:35;100673.78;;;11.73;63.55
48424;BME280;34232;42.502;26.014;2023-05-03T01:29:01;100681.09;;;11.70;63.49
48424;BME280;34232;42.502;26.014;2023-05-03T01:34:04;100689.81;;;11.59;64.31
48424;BME280;34232;42.502;26.014;2023-05-03T01:36:34;100688.41;;;11.66;64.49
48424;BME280;34232;42.502;26.014;2023-05-03T01:39:02;100696.56;;;11.63;64.62
48424;BME280;34232;42.502;26.014;2023-05-03T01:41:30;100692.34;;;11.61;64.57
48424;BME280;34232;42.502;26.014;2023-05-03T01:43:56;100688.66;;;11.63;64.73
48424;BME280;34232;42.502;26.014;2023-05-03T01:46:21;100692.97;;;11.64;65.05
48424;BME280;34232;42.502;26.014;2023-05-03T01:48:46;100692.00;;;11.65;65.15
48424;BME280;34232;42.502;26.014;2023-05-03T01:51:12;100694.75;;;11.64;65.35
48424;BME280;34232;42.502;26.014;2023-05-03T01:53:37;100693.41;;;11.58;65.49
48424;BME280;34232;42.502;26.014;2023-05-03T01:56:02;100687.41;;;11.56;65.84
48424;BME280;34232;42.502;26.014;2023-05-03T01:58:28;100684.94;;;11.66;65.71
48424;BME280;34232;42.502;26.014;2023-05-03T02:00:53;100689.97;;;11.69;65.75
48424;BME280;34232;42.502;26.014;2023-05-03T02:03:18;100688.03;;;11.71;66.27
48424;BME280;34232;42.502;26.014;2023-05-03T02:05:44;100690.78;;;11.69;66.35
48424;BME280;34232;42.502;26.014;2023-05-03T02:08:10;100684.56;;;11.70;66.14
48424;BME280;34232;42.502;26.014;2023-05-03T02:10:35;100689.13;;;11.68;66.57
48424;BME280;34232;42.502;26.014;2023-05-03T02:13:00;100684.44;;;11.72;66.30
48424;BME280;34232;42.502;26.014;2023-05-03T02:15:25;100680.53;;;11.77;66.33
48424;BME280;34232;42.502;26.014;2023-05-03T02:17:51;100670.22;;;11.85;65.72
48424;BME280;34232;42.502;26.014;2023-05-03T02:20:18;100653.81;;;11.82;65.15
48424;BME280;34232;42.502;26.014;2023-05-03T02:22:43;100670.47;;;11.82;63.99
48424;BME280;34232;42.502;26.014;2023-05-03T02:25:08;100663.94;;;11.75;63.59
48424;BME280;34232;42.502;26.014;2023-05-03T02:27:34;100658.44;;;11.67;62.79
48424;BME280;34232;42.502;26.014;2023-05-03T02:29:59;100665.97;;;11.61;63.19
48424;BME280;34232;42.502;26.014;2023-05-03T02:32:24;100653.97;;;11.56;62.49
48424;BME280;34232;42.502;26.014;2023-05-03T02:34:50;100651.09;;;11.48;63.17
48424;BME280;34232;42.502;26.014;2023-05-03T02:37:15;100650.50;;;11.45;63.56
48424;BME280;34232;42.502;26.014;2023-05-03T02:39:40;100656.06;;;11.18;64.49
48424;BME280;34232;42.502;26.014;2023-05-03T02:42:06;100663.59;;;11.11;65.26
48424;BME280;34232;42.502;26.014;2023-05-03T02:44:32;100672.34;;;11.12;65.99
48424;BME280;34232;42.502;26.014;2023-05-03T02:46:57;100669.13;;;11.19;66.32
48424;BME280;34232;42.502;26.014;2023-05-03T02:49:22;100667.69;;;11.27;66.79
48424;BME280;34232;42.502;26.014;2023-05-03T02:51:48;100675.88;;;11.35;66.63
48424;BME280;34232;42.502;26.014;2023-05-03T02:54:13;100672.44;;;11.45;67.02
48424;BME280;34232;42.502;26.014;2023-05-03T02:56:38;100662.25;;;11.52;66.62
48424;BME280;34232;42.502;26.014;2023-05-03T02:59:04;100668.97;;;11.56;66.75
48424;BME280;34232;42.502;26.014;2023-05-03T03:01:29;100668.72;;;11.59;67.17
48424;BME280;34232;42.502;26.014;2023-05-03T03:03:54;100663.22;;;11.62;67.31
48424;BME280;34232;42.502;26.014;2023-05-03T03:06:20;100662.38;;;11.62;67.65
48424;BME280;34232;42.502;26.014;2023-05-03T03:08:45;100668.28;;;11.65;68.40
48424;BME280;34232;42.502;26.014;2023-05-03T03:11:10;100671.88;;;11.64;68.96
48424;BME280;34232;42.502;26.014;2023-05-03T03:13:36;100675.47;;;11.63;69.72
48424;BME280;34232;42.502;26.014;2023-05-03T03:18:51;100678.50;;;11.81;69.38
48424;BME280;34232;42.502;26.014;2023-05-03T03:21:16;100671.31;;;11.83;69.67
48424;BME280;34232;42.502;26.014;2023-05-03T03:23:42;100664.47;;;11.91;69.56
48424;BME280;34232;42.502;26.014;2023-05-03T03:26:07;100665.19;;;11.94;69.65
48424;BME280;34232;42.502;26.014;2023-05-03T03:28:32;100667.84;;;11.94;69.71
48424;BME280;34232;42.502;26.014;2023-05-03T03:30:57;100667.38;;;12.00;69.18
48424;BME280;34232;42.502;26.014;2023-05-03T03:33:26;100663.50;;;12.04;69.45
48424;BME280;34232;42.502;26.014;2023-05-03T03:35:51;100670.00;;;12.11;69.13
48424;BME280;34232;42.502;26.014;2023-05-03T03:38:17;100674.19;;;12.13;69.74
48424;BME280;34232;42.502;26.014;2023-05-03T03:40:42;100675.75;;;12.16;69.57
48424;BME280;34232;42.502;26.014;2023-05-03T03:43:07;100680.75;;;12.19;69.43
48424;BME280;34232;42.502;26.014;2023-05-03T03:45:32;100681.25;;;12.24;69.63
48424;BME280;34232;42.502;26.014;2023-05-03T03:47:58;100684.63;;;12.26;69.24
48424;BME280;34232;42.502;26.014;2023-05-03T03:50:23;100677.66;;;12.25;69.40
48424;BME280;34232;42.502;26.014;2023-05-03T03:52:49;100672.63;;;12.22;69.84
48424;BME280;34232;42.502;26.014;2023-05-03T03:55:14;100670.69;;;12.24;69.96
48424;BME280;34232;42.502;26.014;2023-05-03T03:57:40;100681.00;;;12.27;69.65
48424;BME280;34232;42.502;26.014;2023-05-03T04:00:05;100678.97;;;12.31;69.00
48424;BME280;34232;42.502;26.014;2023-05-03T04:02:35;100676.22;;;12.32;69.04
48424;BME280;34232;42.502;26.014;2023-05-03T04:05:01;100687.97;;;12.28;69.16
48424;BME280;34232;42.502;26.014;2023-05-03T04:07:26;100697.31;;;12.21;69.95
48424;BME280;34232;42.502;26.014;2023-05-03T04:09:51;100705.03;;;12.13;70.29
48424;BME280;34232;42.502;26.014;2023-05-03T04:12:17;100709.56;;;12.22;70.76
48424;BME280;34232;42.502;26.014;2023-05-03T04:14:42;100722.66;;;12.23;70.81
48424;BME280;34232;42.502;26.014;2023-05-03T04:17:07;100729.97;;;12.09;71.71
48424;BME280;34232;42.502;26.014;2023-05-03T04:19:33;100721.47;;;12.27;71.69
48424;BME280;34232;42.502;26.014;2023-05-03T04:21:58;100703.19;;;12.47;71.27
48424;BME280;34232;42.502;26.014;2023-05-03T04:24:23;100705.44;;;12.63;70.33
48424;BME280;34232;42.502;26.014;2023-05-03T04:26:49;100700.13;;;12.74;70.13
48424;BME280;34232;42.502;26.014;2023-05-03T04:29:15;100721.50;;;12.71;70.13
48424;BME280;34232;42.502;26.014;2023-05-03T04:31:44;100731.03;;;12.62;70.73
48424;BME280;34232;42.502;26.014;2023-05-03T04:34:09;100719.34;;;12.76;70.88
48424;BME280;34232;42.502;26.014;2023-05-03T04:36:38;100730.59;;;12.89;70.45
48424;BME280;34232;42.502;26.014;2023-05-03T04:39:04;100720.94;;;12.99;69.63
48424;BME280;34232;42.502;26.014;2023-05-03T04:41:30;100706.75;;;13.00;70.37
48424;BME280;34232;42.502;26.014;2023-05-03T04:43:55;100707.47;;;13.02;69.38
48424;BME280;34232;42.502;26.014;2023-05-03T04:46:21;100704.94;;;13.12;67.73
48424;BME280;34232;42.502;26.014;2023-05-03T04:48:46;100708.06;;;13.17;67.66
48424;BME280;34232;42.502;26.014;2023-05-03T04:51:11;100712.25;;;13.19;67.16
48424;BME280;34232;42.502;26.014;2023-05-03T04:53:36;100694.72;;;13.18;66.77
48424;BME280;34232;42.502;26.014;2023-05-03T04:56:02;100710.09;;;13.13;66.41
48424;BME280;34232;42.502;26.014;2023-05-03T04:58:27;100734.88;;;13.01;66.36
48424;BME280;34232;42.502;26.014;2023-05-03T05:00:52;100751.31;;;13.05;66.23
48424;BME280;34232;42.502;26.014;2023-05-03T05:03:21;100761.97;;;12.82;66.90
48424;BME280;34232;42.502;26.014;2023-05-03T05:05:46;100768.34;;;12.57;67.99
48424;BME280;34232;42.502;26.014;2023-05-03T05:08:11;100764.72;;;12.70;67.88
48424;BME280;34232;42.502;26.014;2023-05-03T05:10:37;100776.75;;;12.74;67.89
48424;BME280;34232;42.502;26.014;2023-05-03T05:13:04;100779.84;;;12.90;67.37
48424;BME280;34232;42.502;26.014;2023-05-03T05:15:30;100793.78;;;12.92;67.63
48424;BME280;34232;42.502;26.014;2023-05-03T05:17:55;100792.06;;;13.02;67.71
48424;BME280;34232;42.502;26.014;2023-05-03T05:20:20;100796.84;;;13.19;66.04
48424;BME280;34232;42.502;26.014;2023-05-03T05:22:45;100802.31;;;13.39;66.37
48424;BME280;34232;42.502;26.014;2023-05-03T05:25:11;100798.66;;;13.51;65.09
48424;BME280;34232;42.502;26.014;2023-05-03T05:27:36;100804.88;;;13.61;64.27
48424;BME280;34232;42.502;26.014;2023-05-03T05:30:02;100810.06;;;13.62;64.13
48424;BME280;34232;42.502;26.014;2023-05-03T05:32:28;100800.56;;;13.60;62.96
48424;BME280;34232;42.502;26.014;2023-05-03T05:34:53;100783.91;;;13.69;62.57
48424;BME280;34232;42.502;26.014;2023-05-03T05:37:23;100783.72;;;13.82;63.88
48424;BME280;34232;42.502;26.014;2023-05-03T05:39:48;100782.94;;;13.91;64.97
48424;BME280;34232;42.502;26.014;2023-05-03T05:42:14;100777.69;;;14.00;65.39
48424;BME280;34232;42.502;26.014;2023-05-03T05:44:40;100781.53;;;14.08;61.86
48424;BME280;34232;42.502;26.014;2023-05-03T05:47:05;100780.00;;;14.15;62.61
48424;BME280;34232;42.502;26.014;2023-05-03T05:49:30;100790.09;;;14.21;62.46
48424;BME280;34232;42.502;26.014;2023-05-03T05:51:56;100794.41;;;14.22;61.27
48424;BME280;34232;42.502;26.014;2023-05-03T05:54:21;100796.56;;;14.28;61.13
48424;BME280;34232;42.502;26.014;2023-05-03T05:56:46;100794.06;;;14.36;63.67
48424;BME280;34232;42.502;26.014;2023-05-03T05:59:12;100796.34;;;14.41;62.89
48424;BME280;34232;42.502;26.014;2023-05-03T06:01:37;100820.91;;;14.43;62.11
48424;BME280;34232;42.502;26.014;2023-05-03T06:04:05;100822.50;;;14.34;62.92
48424;BME280;34232;42.502;26.014;2023-05-03T06:06:31;100817.44;;;14.31;61.67
48424;BME280;34232;42.502;26.014;2023-05-03T06:08:56;100842.53;;;14.27;62.29
48424;BME280;34232;42.502;26.014;2023-05-03T06:11:21;100854.63;;;14.20;62.43
48424;BME280;34232;42.502;26.014;2023-05-03T06:13:46;100849.06;;;14.23;62.99
48424;BME280;34232;42.502;26.014;2023-05-03T06:16:12;100851.72;;;14.23;62.93
48424;BME280;34232;42.502;26.014;2023-05-03T06:18:37;100836.44;;;14.36;63.79
48424;BME280;34232;42.502;26.014;2023-05-03T06:21:03;100822.44;;;14.45;64.09
48424;BME280;34232;42.502;26.014;2023-05-03T06:23:28;100824.56;;;14.51;59.96
48424;BME280;34232;42.502;26.014;2023-05-03T06:25:54;100804.53;;;14.58;60.83
48424;BME280;34232;42.502;26.014;2023-05-03T06:28:19;100796.72;;;14.66;62.28
48424;BME280;34232;42.502;26.014;2023-05-03T06:30:53;100792.84;;;14.70;62.02
48424;BME280;34232;42.502;26.014;2023-05-03T06:33:19;100797.44;;;14.78;60.19
48424;BME280;34232;42.502;26.014;2023-05-03T06:35:44;100776.69;;;14.83;61.60
48424;BME280;34232;42.502;26.014;2023-05-03T06:38:11;100767.63;;;14.86;59.58
48424;BME280;34232;42.502;26.014;2023-05-03T06:40:36;100799.88;;;14.91;58.85
48424;BME280;34232;42.502;26.014;2023-05-03T06:43:02;100809.47;;;14.82;59.86
48424;BME280;34232;42.502;26.014;2023-05-03T06:45:27;100809.09;;;14.96;59.14
48424;BME280;34232;42.502;26.014;2023-05-03T06:47:52;100803.56;;;15.09;59.35
48424;BME280;34232;42.502;26.014;2023-05-03T06:50:18;100802.72;;;15.09;59.69
48424;BME280;34232;42.502;26.014;2023-05-03T06:52:44;100796.72;;;15.16;59.11
48424;BME280;34232;42.502;26.014;2023-05-03T06:55:09;100793.91;;;15.27;60.07
48424;BME280;34232;42.502;26.014;2023-05-03T06:57:35;100789.03;;;15.32;59.10
48424;BME280;34232;42.502;26.014;2023-05-03T07:00:00;100805.22;;;15.29;58.18
48424;BME280;34232;42.502;26.014;2023-05-03T07:02:25;100805.38;;;15.18;57.48
48424;BME280;34232;42.502;26.014;2023-05-03T07:04:51;100793.25;;;15.25;57.64
48424;BME280;34232;42.502;26.014;2023-05-03T07:07:16;100783.47;;;15.35;58.77
48424;BME280;34232;42.502;26.014;2023-05-03T07:09:41;100786.94;;;15.46;58.42
48424;BME280;34232;42.502;26.014;2023-05-03T07:12:07;100785.28;;;15.45;55.52
48424;BME280;34232;42.502;26.014;2023-05-03T07:14:32;100785.56;;;15.51;54.64
48424;BME280;34232;42.502;26.014;2023-05-03T07:16:57;100785.97;;;15.47;55.04
48424;BME280;34232;42.502;26.014;2023-05-03T07:19:23;100782.63;;;15.45;55.99
48424;BME280;34232;42.502;26.014;2023-05-03T07:21:48;100770.06;;;15.47;56.71
48424;BME280;34232;42.502;26.014;2023-05-03T07:24:13;100768.16;;;15.58;56.92
48424;BME280;34232;42.502;26.014;2023-05-03T07:26:38;100770.09;;;15.66;56.31
48424;BME280;34232;42.502;26.014;2023-05-03T07:29:04;100784.03;;;15.78;56.40
48424;BME280;34232;42.502;26.014;2023-05-03T07:31:29;100787.78;;;15.75;56.09
48424;BME280;34232;42.502;26.014;2023-05-03T07:33:55;100792.38;;;15.92;57.72
48424;BME280;34232;42.502;26.014;2023-05-03T07:36:20;100793.50;;;15.99;55.79
48424;BME280;34232;42.502;26.014;2023-05-03T07:38:46;100781.72;;;16.12;57.66
48424;BME280;34232;42.502;26.014;2023-05-03T07:41:11;100783.91;;;16.26;56.93
48424;BME280;34232;42.502;26.014;2023-05-03T07:43:36;100762.88;;;16.42;57.76
48424;BME280;34232;42.502;26.014;2023-05-03T07:46:01;100747.41;;;16.65;57.67
48424;BME280;34232;42.502;26.014;2023-05-03T07:48:27;100748.91;;;16.95;54.52
48424;BME280;34232;42.502;26.014;2023-05-03T07:50:52;100752.50;;;17.21;55.35
48424;BME280;34232;42.502;26.014;2023-05-03T07:53:18;100742.22;;;17.44;53.87
48424;BME280;34232;42.502;26.014;2023-05-03T07:55:43;100751.66;;;17.74;49.90
48424;BME280;34232;42.502;26.014;2023-05-03T07:58:08;100745.13;;;17.94;50.26
48424;BME280;34232;42.502;26.014;2023-05-03T08:00:33;100738.19;;;18.01;47.24
48424;BME280;34232;42.502;26.014;2023-05-03T08:02:59;100746.75;;;18.13;46.13
48424;BME280;34232;42.502;26.014;2023-05-03T08:05:27;100759.28;;;18.21;48.46
48424;BME280;34232;42.502;26.014;2023-05-03T08:07:53;100742.50;;;18.36;47.68
48424;BME280;34232;42.502;26.014;2023-05-03T08:10:18;100745.41;;;18.43;46.52
48424;BME280;34232;42.502;26.014;2023-05-03T08:12:43;100742.50;;;18.62;46.89
48424;BME280;34232;42.502;26.014;2023-05-03T08:15:09;100734.56;;;18.78;46.82
48424;BME280;34232;42.502;26.014;2023-05-03T08:17:38;100730.94;;;19.04;47.01
48424;BME280;34232;42.502;26.014;2023-05-03T08:20:04;100734.13;;;19.15;46.41
48424;BME280;34232;42.502;26.014;2023-05-03T08:22:30;100725.78;;;19.10;45.20
48424;BME280;34232;42.502;26.014;2023-05-03T08:24:55;100725.28;;;19.07;46.41
48424;BME280;34232;42.502;26.014;2023-05-03T08:27:20;100725.31;;;19.31;46.12
48424;BME280;34232;42.502;26.014;2023-05-03T08:29:46;100726.63;;;19.43;45.54
48424;BME280;34232;42.502;26.014;2023-05-03T08:32:11;100721.47;;;19.42;44.68
48424;BME280;34232;42.502;26.014;2023-05-03T08:34:36;100717.97;;;19.58;45.41
48424;BME280;34232;42.502;26.014;2023-05-03T08:37:02;100699.94;;;19.60;45.07
48424;BME280;34232;42.502;26.014;2023-05-03T08:39:29;100693.91;;;19.66;44.51
48424;BME280;34232;42.502;26.014;2023-05-03T08:41:55;100693.72;;;19.91;45.11
48424;BME280;34232;42.502;26.014;2023-05-03T08:44:21;100681.44;;;20.13;44.99
48424;BME280;34232;42.502;26.014;2023-05-03T08:46:47;100666.66;;;20.34;43.82
48424;BME280;34232;42.502;26.014;2023-05-03T08:49:12;100665.28;;;20.46;45.59
48424;BME280;34232;42.502;26.014;2023-05-03T08:51:39;100651.94;;;20.38;44.45
48424;BME280;34232;42.502;26.014;2023-05-03T08:54:05;100656.22;;;20.55;45.75
48424;BME280;34232;42.502;26.014;2023-05-03T08:56:32;100654.03;;;20.81;45.07
48424;BME280;34232;42.502;26.014;2023-05-03T08:58:58;100652.38;;;21.03;44.79
48424;BME280;34232;42.502;26.014;2023-05-03T09:01:31;100650.81;;;21.09;42.37
48424;BME280;34232;42.502;26.014;2023-05-03T09:03:56;100645.75;;;21.14;42.18
48424;BME280;34232;42.502;26.014;2023-05-03T09:06:22;100632.72;;;21.11;45.16
48424;BME280;34232;42.502;26.014;2023-05-03T09:08:51;100630.69;;;21.36;43.82
48424;BME280;34232;42.502;26.014;2023-05-03T09:11:23;100627.66;;;21.53;42.09
48424;BME280;34232;42.502;26.014;2023-05-03T09:13:52;100622.78;;;21.72;42.59
48424;BME280;34232;42.502;26.014;2023-05-03T09:16:21;100635.16;;;21.73;41.45
48424;BME280;34232;42.502;26.014;2023-05-03T09:18:56;100634.41;;;21.79;40.87
48424;BME280;34232;42.502;26.014;2023-05-03T09:21:22;100625.47;;;22.01;40.38
48424;BME280;34232;42.502;26.014;2023-05-03T09:23:47;100638.78;;;22.09;41.29
48424;BME280;34232;42.502;26.014;2023-05-03T09:26:25;100636.91;;;21.95;39.85
48424;BME280;34232;42.502;26.014;2023-05-03T09:28:51;100644.44;;;21.99;39.46
48424;BME280;34232;42.502;26.014;2023-05-03T09:31:16;100643.88;;;21.89;38.80
48424;BME280;34232;42.502;26.014;2023-05-03T09:33:42;100637.28;;;21.92;40.12
48424;BME280;34232;42.502;26.014;2023-05-03T09:36:08;100643.41;;;22.15;38.72
48424;BME280;34232;42.502;26.014;2023-05-03T09:38:33;100638.34;;;22.06;39.34
48424;BME280;34232;42.502;26.014;2023-05-03T09:41:00;100640.38;;;22.04;39.22
48424;BME280;34232;42.502;26.014;2023-05-03T09:43:32;100636.72;;;21.96;39.13
48424;BME280;34232;42.502;26.014;2023-05-03T09:48:33;100638.94;;;21.63;39.75
48424;BME280;34232;42.502;26.014;2023-05-03T09:50:59;100632.41;;;21.28;39.87
48424;BME280;34232;42.502;26.014;2023-05-03T09:53:24;100639.03;;;21.18;41.37
48424;BME280;34232;42.502;26.014;2023-05-03T09:55:51;100638.78;;;20.82;40.57
48424;BME280;34232;42.502;26.014;2023-05-03T09:58:17;100635.00;;;20.76;40.28
48424;BME280;34232;42.502;26.014;2023-05-03T10:00:42;100635.13;;;20.60;41.90
48424;BME280;34232;42.502;26.014;2023-05-03T10:03:11;100635.81;;;20.54;40.58
48424;BME280;34232;42.502;26.014;2023-05-03T10:05:42;100629.31;;;20.48;40.68
48424;BME280;34232;42.502;26.014;2023-05-03T10:08:10;100620.34;;;20.41;40.98
48424;BME280;34232;42.502;26.014;2023-05-03T10:10:36;100621.91;;;20.27;41.21
48424;BME280;34232;42.502;26.014;2023-05-03T10:13:03;100635.13;;;20.21;41.63
48424;BME280;34232;42.502;26.014;2023-05-03T10:15:29;100639.84;;;20.11;40.59
48424;BME280;34232;42.502;26.014;2023-05-03T10:17:56;100645.19;;;20.11;40.57
48424;BME280;34232;42.502;26.014;2023-05-03T10:20:31;100651.28;;;19.88;40.61
48424;BME280;34232;42.502;26.014;2023-05-03T10:25:28;100633.38;;;19.97;41.38
48424;BME280;34232;42.502;26.014;2023-05-03T10:28:00;100642.38;;;20.12;41.00
48424;BME280;34232;42.502;26.014;2023-05-03T10:30:32;100649.00;;;20.16;40.88
48424;BME280;34232;42.502;26.014;2023-05-03T10:32:59;100659.63;;;20.33;41.78
48424;BME280;34232;42.502;26.014;2023-05-03T10:35:49;100671.34;;;20.40;41.88
48424;BME280;34232;42.502;26.014;2023-05-03T10:38:20;100672.28;;;20.47;41.45
48424;BME280;34232;42.502;26.014;2023-05-03T10:40:45;100669.44;;;20.48;41.50
48424;BME280;34232;42.502;26.014;2023-05-03T10:45:58;100658.63;;;20.42;42.38
48424;BME280;34232;42.502;26.014;2023-05-03T10:48:23;100667.16;;;20.37;42.51
48424;BME280;34232;42.502;26.014;2023-05-03T10:50:49;100666.66;;;20.34;41.83
48424;BME280;34232;42.502;26.014;2023-05-03T10:53:38;100677.69;;;20.31;42.81
48424;BME280;34232;42.502;26.014;2023-05-03T10:56:04;100672.34;;;20.31;41.32
48424;BME280;34232;42.502;26.014;2023-05-03T10:58:33;100678.41;;;20.24;42.02
48424;BME280;34232;42.502;26.014;2023-05-03T11:00:59;100680.69;;;20.36;43.00
48424;BME280;34232;42.502;26.014;2023-05-03T11:03:34;100677.28;;;20.50;43.10
48424;BME280;34232;42.502;26.014;2023-05-03T11:06:03;100686.66;;;20.54;43.00
48424;BME280;34232;42.502;26.014;2023-05-03T11:08:29;100685.88;;;20.45;43.19
48424;BME280;34232;42.502;26.014;2023-05-03T11:11:01;100696.78;;;20.19;42.96
48424;BME280;34232;42.502;26.014;2023-05-03T11:13:26;100695.78;;;20.20;44.03
48424;BME280;34232;42.502;26.014;2023-05-03T11:15:52;100688.88;;;19.95;42.52
48424;BME280;34232;42.502;26.014;2023-05-03T11:18:18;100684.84;;;19.91;43.47
48424;BME280;34232;42.502;26.014;2023-05-03T11:20:43;100690.56;;;19.80;43.48
48424;BME280;34232;42.502;26.014;2023-05-03T11:23:10;100688.91;;;19.79;43.75
48424;BME280;34232;42.502;26.014;2023-05-03T11:25:35;100692.91;;;19.75;43.27
48424;BME280;34232;42.502;26.014;2023-05-03T11:28:01;100692.56;;;19.70;43.36
48424;BME280;34232;42.502;26.014;2023-05-03T11:30:28;100695.75;;;19.65;43.62
48424;BME280;34232;42.502;26.014;2023-05-03T11:32:53;100683.25;;;19.58;43.94
48424;BME280;34232;42.502;26.014;2023-05-03T11:35:19;100688.94;;;19.54;46.06
48424;BME280;34232;42.502;26.014;2023-05-03T11:37:47;100680.25;;;19.61;49.26
48424;BME280;34232;42.502;26.014;2023-05-03T11:40:13;100674.75;;;19.62;50.79
48424;BME280;34232;42.502;26.014;2023-05-03T11:42:50;100674.75;;;19.54;52.31
48424;BME280;34232;42.502;26.014;2023-05-03T11:45:17;100669.22;;;19.47;52.67
48424;BME280;34232;42.502;26.014;2023-05-03T11:47:42;100663.56;;;19.26;54.18
48424;BME280;34232;42.502;26.014;2023-05-03T11:50:08;100659.03;;;19.18;58.35
48424;BME280;34232;42.502;26.014;2023-05-03T11:52:35;100645.03;;;19.00;57.94
48424;BME280;34232;42.502;26.014;2023-05-03T11:55:01;100640.19;;;19.04;58.19
48424;BME280;34232;42.502;26.014;2023-05-03T11:57:26;100630.84;;;18.83;57.88
48424;BME280;34232;42.502;26.014;2023-05-03T11:59:51;100620.81;;;18.69;59.08
48424;BME280;34232;42.502;26.014;2023-05-03T12:02:17;100600.78;;;18.57;60.81
48424;BME280;34232;42.502;26.014;2023-05-03T12:04:42;100597.44;;;18.55;60.53
48424;BME280;34232;42.502;26.014;2023-05-03T12:07:08;100598.09;;;18.57;61.89
48424;BME280;34232;42.502;26.014;2023-05-03T12:09:34;100612.81;;;18.61;62.55
48424;BME280;34232;42.502;26.014;2023-05-03T12:12:02;100615.16;;;18.72;63.40
48424;BME280;34232;42.502;26.014;2023-05-03T12:14:53;100583.50;;;18.77;61.26
48424;BME280;34232;42.502;26.014;2023-05-03T12:17:14;100581.66;;;18.78;60.81
48424;BME280;34232;42.502;26.014;2023-05-03T12:19:39;100612.16;;;18.75;60.30
48424;BME280;34232;42.502;26.014;2023-05-03T12:22:04;100630.34;;;18.88;63.62
48424;BME280;34232;42.502;26.014;2023-05-03T12:24:43;100624.50;;;18.84;59.03
48424;BME280;34232;42.502;26.014;2023-05-03T12:27:08;100621.34;;;18.97;56.51
48424;BME280;34232;42.502;26.014;2023-05-03T12:29:33;100617.50;;;19.00;57.62
48424;BME280;34232;42.502;26.014;2023-05-03T12:31:59;100621.19;;;18.99;53.78
48424;BME280;34232;42.502;26.014;2023-05-03T12:34:26;100619.84;;;18.95;54.86
48424;BME280;34232;42.502;26.014;2023-05-03T12:36:52;100620.19;;;18.92;57.62
48424;BME280;34232;42.502;26.014;2023-05-03T12:39:17;100600.50;;;18.93;56.77
48424;BME280;34232;42.502;26.014;2023-05-03T12:41:42;100591.50;;;18.85;54.43
48424;BME280;34232;42.502;26.014;2023-05-03T12:44:08;100591.50;;;18.77;54.12
48424;BME280;34232;42.502;26.014;2023-05-03T12:46:33;100577.00;;;18.80;55.58
48424;BME280;34232;42.502;26.014;2023-05-03T12:48:58;100574.34;;;18.80;54.12
48424;BME280;34232;42.502;26.014;2023-05-03T12:51:23;100538.28;;;18.84;54.09
48424;BME280;34232;42.502;26.014;2023-05-03T12:53:51;100523.47;;;18.81;54.03